Time;durP1;ratioP1;P1;durP2;ratioP2;P2;SDS_P1;SDS_P2;PMS_P1;PMS_P2;Temp;Humidity;BMP_temperature;BMP_pressure;BME280_temperature;BME280_humidity;BME280_pressure;Samples;Min_cycle;Max_cycle;Signal;HPM_P1;HPM_P2
2022/11/10 00:00:29;;;;;;;8.15;3.00;;;12.60;1.00;;;;;;5070485;28;20400;-50
2022/11/10 00:03:03;;;;;;;7.60;2.70;;;12.60;1.00;;;;;;5069707;28;20404;-50
2022/11/10 00:05:30;;;;;;;8.95;3.00;;;12.50;1.00;;;;;;5069942;28;20799;-50
2022/11/10 00:07:56;;;;;;;10.13;3.22;;;12.50;1.00;;;;;;5070007;28;20388;-51
2022/11/10 00:10:22;;;;;;;8.20;3.30;;;12.50;1.00;;;;;;5069274;28;20495;-50
2022/11/10 00:12:48;;;;;;;7.90;2.40;;;12.50;1.00;;;;;;5069804;28;20382;-50
2022/11/10 00:18:01;;;;;;;10.23;2.83;;;12.40;1.00;;;;;;5069918;28;20414;-51
2022/11/10 00:20:26;;;;;;;10.32;2.80;;;12.30;1.00;;;;;;5069824;28;20399;-50
2022/11/10 00:22:55;;;;;;;10.90;2.70;;;12.30;24.10;;;;;;5069649;28;20872;-51
2022/11/10 00:25:21;;;;;;;11.30;3.15;;;12.30;18.30;;;;;;5068853;28;20405;-50
2022/11/10 00:27:46;;;;;;;9.30;2.95;;;12.20;26.80;;;;;;5069807;28;20387;-50
2022/11/10 00:30:13;;;;;;;6.63;2.35;;;12.30;44.40;;;;;;5068772;28;20382;-50
2022/11/10 00:32:38;;;;;;;7.90;2.83;;;12.30;69.50;;;;;;5069294;28;20419;-50
2022/11/10 00:35:04;;;;;;;10.10;2.50;;;12.40;68.90;;;;;;5070189;28;20384;-50
2022/11/10 00:37:30;;;;;;;8.52;2.63;;;12.40;53.90;;;;;;5073886;28;20433;-50
2022/11/10 00:39:55;;;;;;;8.37;2.80;;;12.50;1.00;;;;;;5073695;28;20383;-50
2022/11/10 00:42:21;;;;;;;7.35;2.90;;;12.50;1.00;;;;;;5072922;28;20412;-50
2022/11/10 00:44:47;;;;;;;9.13;3.13;;;12.50;1.00;;;;;;5055699;28;20454;-50
2022/11/10 00:47:12;;;;;;;7.00;2.60;;;12.40;1.00;;;;;;5072537;28;20379;-51
2022/11/10 00:49:38;;;;;;;7.65;2.50;;;12.40;1.00;;;;;;5073802;28;20410;-50
2022/11/10 00:52:03;;;;;;;9.33;2.73;;;12.30;1.00;;;;;;5072614;28;20795;-51
2022/11/10 00:54:29;;;;;;;7.30;2.80;;;12.20;1.00;;;;;;5073620;28;20382;-54
2022/11/10 00:56:55;;;;;;;9.20;2.65;;;12.20;1.00;;;;;;5073414;28;20393;-50
2022/11/10 00:59:20;;;;;;;7.27;3.00;;;12.10;1.00;;;;;;5072282;28;20961;-50
2022/11/10 01:01:46;;;;;;;7.90;2.80;;;12.00;1.00;;;;;;5073377;28;20395;-50
2022/11/10 01:04:11;;;;;;;10.97;3.20;;;11.90;1.00;;;;;;5072411;28;20405;-51
2022/11/10 01:06:37;;;;;;;10.00;3.17;;;11.90;4.30;;;;;;5073368;28;20434;-50
2022/11/10 01:09:03;;;;;;;10.55;3.10;;;11.70;73.50;;;;;;5072628;28;20387;-55
2022/11/10 01:11:29;;;;;;;10.65;3.03;;;11.70;99.90;;;;;;5073032;28;20395;-50
2022/11/10 01:13:55;;;;;;;8.90;3.13;;;11.60;99.90;;;;;;5073076;28;20736;-50
2022/11/10 01:16:27;;;;;;;7.50;2.60;;;11.60;99.90;;;;;;5072328;28;20574;-51
2022/11/10 01:18:56;;;;;;;8.93;3.00;;;11.50;99.90;;;;;;5073083;28;20414;-50
2022/11/10 01:21:22;;;;;;;10.40;3.10;;;11.60;99.90;;;;;;5072280;28;20849;-51
2022/11/10 01:23:48;;;;;;;8.23;2.88;;;11.70;99.90;;;;;;5072786;28;20403;-50
2022/11/10 01:26:15;;;;;;;7.03;3.03;;;11.80;99.90;;;;;;5071979;28;20380;-50
2022/11/10 01:28:41;;;;;;;9.63;3.40;;;11.80;99.90;;;;;;5072745;28;20425;-50
2022/11/10 01:31:11;;;;;;;5.88;2.45;;;11.80;99.90;;;;;;5071994;28;20815;-51
2022/11/10 01:33:36;;;;;;;8.80;3.20;;;11.90;33.50;;;;;;5072474;28;20897;-50
2022/11/10 01:36:04;;;;;;;8.50;2.42;;;11.90;22.30;;;;;;5072138;28;20417;-57
2022/11/10 01:38:33;;;;;;;8.82;2.70;;;11.90;2.50;;;;;;5072329;28;20406;-50
2022/11/10 01:40:59;;;;;;;7.70;2.85;;;11.90;1.00;;;;;;5072250;28;20853;-57
2022/11/10 01:43:26;;;;;;;9.13;2.95;;;11.90;1.20;;;;;;5071981;28;20415;-50
2022/11/10 01:46:05;;;;;;;8.00;2.70;;;11.80;16.80;;;;;;5072292;28;20376;-50
2022/11/10 01:48:48;;;;;;;7.57;3.00;;;11.80;32.50;;;;;;5072154;28;20884;-51
2022/11/10 01:51:18;;;;;;;12.47;3.60;;;11.80;39.00;;;;;;5071625;28;20463;-50
2022/11/10 01:53:47;;;;;;;11.23;3.13;;;11.80;25.60;;;;;;5072392;28;21029;-50
2022/11/10 01:56:14;;;;;;;11.50;2.70;;;11.80;27.60;;;;;;5071663;28;20898;-50
2022/11/10 01:58:47;;;;;;;6.88;2.70;;;11.70;53.00;;;;;;5072458;28;20428;-50
2022/11/10 02:01:13;;;;;;;9.20;2.70;;;11.80;35.60;;;;;;5072103;28;20379;-50
2022/11/10 02:03:45;;;;;;;8.88;2.70;;;11.80;47.30;;;;;;5072260;28;20904;-50
2022/11/10 02:06:14;;;;;;;8.70;2.88;;;11.80;30.30;;;;;;5071301;28;20392;-51
2022/11/10 02:08:40;;;;;;;12.20;3.58;;;11.70;1.00;;;;;;5072163;28;20376;-50
2022/11/10 02:11:06;;;;;;;8.05;2.83;;;11.60;1.00;;;;;;5071392;28;20459;-50
2022/11/10 02:13:31;;;;;;;7.20;2.90;;;11.40;11.80;;;;;;5072260;28;20483;-50
2022/11/10 02:15:57;;;;;;;7.82;2.88;;;11.40;23.60;;;;;;5071743;28;20380;-50
2022/11/10 02:18:23;;;;;;;8.40;3.20;;;11.30;39.70;;;;;;5071346;28;20636;-50
2022/11/10 02:20:48;;;;;;;10.55;2.90;;;11.20;50.80;;;;;;5072290;28;20441;-50
2022/11/10 02:23:34;;;;;;;9.70;2.73;;;11.20;93.20;;;;;;5071174;28;20932;-50
2022/11/10 02:26:02;;;;;;;9.65;3.30;;;11.20;99.90;;;;;;5054063;28;20460;-54
2022/11/10 02:28:31;;;;;;;9.90;2.80;;;11.20;99.90;;;;;;5071826;28;20392;-50
2022/11/10 02:30:57;;;;;;;8.00;2.70;;;11.10;99.90;;;;;;5053747;28;20384;-50
2022/11/10 02:33:22;;;;;;;9.20;3.00;;;11.10;99.90;;;;;;5070519;28;20418;-50
2022/11/10 02:35:48;;;;;;;9.10;3.00;;;11.10;99.90;;;;;;5071437;28;20543;-50
2022/11/10 02:38:13;;;;;;;12.70;3.10;;;11.10;79.30;;;;;;5070476;28;20375;-50
2022/11/10 02:40:39;;;;;;;9.23;3.13;;;11.10;59.00;;;;;;5071770;28;20497;-52
2022/11/10 02:43:08;;;;;;;12.07;3.20;;;11.10;32.10;;;;;;5070456;28;20414;-55
2022/11/10 02:45:34;;;;;;;8.30;2.70;;;11.00;22.10;;;;;;5071191;28;20475;-50
2022/11/10 02:48:00;;;;;;;9.88;3.10;;;10.90;38.90;;;;;;5069137;28;20488;-50
2022/11/10 02:50:25;;;;;;;7.43;2.50;;;10.90;21.30;;;;;;5065486;28;20391;-50
2022/11/10 02:52:51;;;;;;;10.27;2.53;;;10.70;22.20;;;;;;5071182;28;20853;-50
2022/11/10 02:55:16;;;;;;;8.40;2.50;;;10.70;29.40;;;;;;5069687;28;20383;-50
2022/11/10 02:57:42;;;;;;;12.60;3.60;;;10.70;38.60;;;;;;5070758;28;20419;-50
2022/11/10 03:00:08;;;;;;;9.80;3.00;;;10.50;75.80;;;;;;5069236;28;20406;-51
2022/11/10 03:02:34;;;;;;;10.38;3.20;;;10.60;99.90;;;;;;5070044;28;20424;-50
2022/11/10 03:04:59;;;;;;;10.00;3.07;;;10.60;99.90;;;;;;5070737;28;20391;-50
2022/11/10 03:07:25;;;;;;;10.60;3.03;;;10.60;79.80;;;;;;5069796;28;20810;-51
2022/11/10 03:09:51;;;;;;;9.47;2.90;;;10.50;52.60;;;;;;5070606;28;20407;-54
2022/11/10 03:12:17;;;;;;;12.20;3.10;;;10.50;54.60;;;;;;5069692;28;20384;-50
2022/11/10 03:14:43;;;;;;;10.90;2.70;;;10.50;52.00;;;;;;5070144;28;20757;-50
2022/11/10 03:17:08;;;;;;;10.37;3.10;;;10.50;41.60;;;;;;5069457;28;20375;-50
2022/11/10 03:19:34;;;;;;;8.82;2.90;;;10.50;47.30;;;;;;5070324;28;20380;-51
2022/11/10 03:22:00;;;;;;;6.57;2.60;;;10.50;18.40;;;;;;5070255;28;20384;-50
2022/11/10 03:24:25;;;;;;;8.00;2.80;;;10.50;29.90;;;;;;5069576;28;21024;-50
2022/11/10 03:26:51;;;;;;;9.53;2.93;;;10.40;28.30;;;;;;5070112;28;20372;-50
2022/11/10 03:29:16;;;;;;;11.55;3.25;;;10.40;62.50;;;;;;5069389;28;20444;-50
2022/11/10 03:31:42;;;;;;;13.33;3.80;;;10.40;64.80;;;;;;5069740;28;20836;-50
2022/11/10 03:34:08;;;;;;;10.07;3.58;;;10.40;75.20;;;;;;5069365;28;20426;-50
2022/11/10 03:36:33;;;;;;;11.35;3.25;;;10.40;92.30;;;;;;5070053;28;20468;-52
2022/11/10 03:38:59;;;;;;;10.70;4.03;;;10.30;99.90;;;;;;5070363;28;20383;-49
2022/11/10 03:41:25;;;;;;;9.77;3.67;;;10.30;99.90;;;;;;5069130;28;21218;-50
2022/11/10 03:43:50;;;;;;;8.63;3.77;;;10.30;99.90;;;;;;5069397;28;20873;-50
2022/11/10 03:46:17;;;;;;;12.57;4.18;;;10.20;99.90;;;;;;5069021;28;20384;-50
2022/11/10 03:48:43;;;;;;;10.70;3.80;;;10.20;99.90;;;;;;5069851;28;20419;-50
2022/11/10 03:51:08;;;;;;;12.82;3.35;;;10.20;99.90;;;;;;5068846;28;20786;-50
2022/11/10 03:53:34;;;;;;;11.67;3.90;;;10.20;99.90;;;;;;5069784;28;20380;-53
2022/11/10 03:56:01;;;;;;;11.70;4.30;;;10.30;99.90;;;;;;5069755;28;20779;-50
2022/11/10 03:58:27;;;;;;;6.85;3.05;;;10.40;99.90;;;;;;5068862;28;20854;-52
2022/11/10 04:00:53;;;;;;;12.60;4.30;;;10.40;99.90;;;;;;5069971;28;20382;-50
2022/11/10 04:03:19;;;;;;;10.57;3.10;;;10.40;99.90;;;;;;5066366;28;20412;-50
2022/11/10 04:15:40;;;;;;;11.18;3.20;;;10.50;99.90;;;;;;5067577;28;20363;-50
2022/11/10 04:16:43;;;;;;;10.30;3.33;;;10.30;99.90;;;;;;5067004;28;20379;-50
2022/11/10 04:19:08;;;;;;;10.80;3.23;;;10.20;89.10;;;;;;5068595;28;20737;-50
2022/11/10 04:21:34;;;;;;;11.05;3.13;;;10.10;94.30;;;;;;5069421;28;20380;-50
2022/11/10 04:23:59;;;;;;;9.70;3.00;;;10.00;96.40;;;;;;5069260;28;20410;-50
2022/11/10 04:26:28;;;;;;;10.37;3.43;;;10.00;99.90;;;;;;5068860;28;21335;-50
2022/11/10 04:28:56;;;;;;;12.77;3.35;;;10.00;99.90;;;;;;5069171;28;20392;-50
2022/11/10 04:31:24;;;;;;;11.95;3.10;;;9.90;99.90;;;;;;5066103;28;20403;-50
2022/11/10 04:33:50;;;;;;;8.05;3.40;;;9.90;99.90;;;;;;5069796;28;20418;-50
2022/11/10 04:36:18;;;;;;;9.53;3.23;;;9.90;80.20;;;;;;5068836;28;20394;-50
2022/11/10 04:38:45;;;;;;;10.55;3.20;;;9.80;99.90;;;;;;5069476;28;20384;-51
2022/11/10 04:41:11;;;;;;;10.73;3.50;;;9.70;99.90;;;;;;5067096;28;20747;-53
2022/11/10 04:43:37;;;;;;;7.85;3.50;;;9.70;99.90;;;;;;5069539;28;20418;-52
2022/11/10 04:46:04;;;;;;;12.40;3.93;;;9.60;99.90;;;;;;5069212;28;20384;-54
2022/11/10 04:48:31;;;;;;;11.27;3.75;;;9.60;99.90;;;;;;5069257;28;20403;-52
2022/11/10 04:51:01;;;;;;;13.90;3.45;;;9.60;99.90;;;;;;5066945;28;20399;-52
2022/11/10 04:53:27;;;;;;;9.48;3.63;;;9.60;99.90;;;;;;5068729;28;20376;-53
2022/11/10 04:55:52;;;;;;;10.50;3.80;;;9.50;99.90;;;;;;5066700;28;20508;-50
2022/11/10 04:58:18;;;;;;;8.77;3.30;;;9.50;99.90;;;;;;5063701;28;20403;-50
2022/11/10 05:00:43;;;;;;;15.73;3.63;;;9.50;99.90;;;;;;5051018;28;20388;-50
2022/11/10 05:03:11;;;;;;;9.10;3.60;;;9.40;99.90;;;;;;5068252;28;20416;-50
2022/11/10 05:05:36;;;;;;;10.23;4.25;;;9.40;99.90;;;;;;5069275;28;20483;-49
2022/11/10 05:08:02;;;;;;;8.30;3.83;;;9.40;99.90;;;;;;5069305;28;20458;-50
2022/11/10 05:10:28;;;;;;;9.95;3.60;;;9.40;99.90;;;;;;5068268;28;20435;-51
2022/11/10 05:12:55;;;;;;;14.60;3.63;;;9.30;99.90;;;;;;5067336;28;20948;-50
2022/11/10 05:15:22;;;;;;;12.10;3.60;;;10.40;99.90;;;;;;5063768;28;20845;-50
2022/11/10 05:17:50;;;;;;;10.02;3.97;;;9.30;99.90;;;;;;5066364;28;20383;-50
2022/11/10 05:20:16;;;;;;;12.95;3.85;;;9.30;99.90;;;;;;5067960;28;20379;-50
2022/11/10 05:23:36;;;;;;;11.25;4.30;;;9.30;99.90;;;;;;5071000;28;20462;-51
2022/11/10 05:25:34;;;;;;;12.90;4.30;;;9.30;99.90;;;;;;5069639;28;20402;-50
2022/11/10 05:28:00;;;;;;;9.68;3.75;;;9.30;99.90;;;;;;5072202;28;20376;-50
2022/11/10 05:30:26;;;;;;;9.90;3.20;;;9.20;99.90;;;;;;5071724;28;20864;-50
2022/11/10 05:32:51;;;;;;;8.45;3.40;;;10.70;99.90;;;;;;5072283;28;20500;-50
2022/11/10 05:35:17;;;;;;;12.23;3.80;;;9.10;99.90;;;;;;5071800;28;20470;-50
2022/11/10 05:37:43;;;;;;;10.82;4.13;;;9.10;99.90;;;;;;5057906;28;20898;-49
2022/11/10 05:40:09;;;;;;;9.00;3.50;;;9.20;99.90;;;;;;5057897;28;20448;-56
2022/11/10 05:42:46;;;;;;;8.35;3.90;;;9.10;99.90;;;;;;5071015;28;20408;-50
2022/11/10 05:45:12;;;;;;;9.40;3.38;;;9.00;99.90;;;;;;5051848;28;20391;-51
2022/11/10 05:47:38;;;;;;;9.75;3.97;;;9.10;99.90;;;;;;5052509;28;20389;-50
2022/11/10 05:50:05;;;;;;;9.45;3.53;;;9.00;99.90;;;;;;5052196;28;20386;-50
2022/11/10 05:52:31;;;;;;;14.40;4.00;;;9.10;99.90;;;;;;5052043;28;20389;-50
2022/11/10 05:54:56;;;;;;;14.90;4.20;;;9.10;99.90;;;;;;5070031;28;20433;-50
2022/11/10 05:57:22;;;;;;;11.93;4.13;;;9.10;99.90;;;;;;5071294;28;20376;-50
2022/11/10 05:59:47;;;;;;;8.73;3.20;;;9.10;99.90;;;;;;5072608;28;20387;-49
2022/11/10 06:02:13;;;;;;;8.40;3.60;;;9.10;99.90;;;;;;5069026;28;20399;-50
2022/11/10 06:04:39;;;;;;;10.40;3.47;;;9.20;99.90;;;;;;5071003;28;20741;-50
2022/11/10 06:07:06;;;;;;;11.70;3.90;;;9.10;99.90;;;;;;5070367;28;20404;-52
2022/11/10 06:09:35;;;;;;;13.55;4.00;;;9.10;99.90;;;;;;5066909;28;20403;-50
2022/11/10 06:12:02;;;;;;;9.70;4.07;;;10.60;98.20;;;;;;5069105;28;20422;-49
2022/11/10 06:14:27;;;;;;;11.50;3.87;;;9.00;74.70;;;;;;5070962;28;20933;-49
2022/11/10 06:16:53;;;;;;;11.50;3.90;;;9.00;70.50;;;;;;5071505;28;20466;-51
2022/11/10 06:19:19;;;;;;;13.60;3.90;;;9.00;70.60;;;;;;5068616;28;20403;-49
2022/11/10 06:21:44;;;;;;;10.13;4.82;;;8.90;67.70;;;;;;5070045;28;20382;-49
2022/11/10 06:24:10;;;;;;;10.40;3.87;;;8.80;99.90;;;;;;5070811;28;20406;-50
2022/11/10 06:26:35;;;;;;;10.50;4.20;;;8.90;99.90;;;;;;5071513;28;20388;-51
2022/11/10 06:29:01;;;;;;;11.13;4.13;;;9.00;99.90;;;;;;5071716;28;20411;-51
2022/11/10 06:31:27;;;;;;;9.77;3.72;;;9.00;99.90;;;;;;5070706;28;20375;-51
2022/11/10 06:33:53;;;;;;;9.70;3.47;;;9.00;99.90;;;;;;5071104;28;20887;-51
2022/11/10 06:36:18;;;;;;;7.22;3.50;;;9.00;48.90;;;;;;5070730;28;20852;-51
2022/11/10 06:38:44;;;;;;;10.37;4.00;;;9.00;55.70;;;;;;5071198;28;20387;-51
2022/11/10 06:41:09;;;;;;;11.65;3.95;;;8.90;81.40;;;;;;5070599;28;20376;-53
2022/11/10 06:43:35;;;;;;;8.67;3.57;;;8.90;99.90;;;;;;5071614;28;20395;-51
2022/11/10 06:46:01;;;;;;;12.82;4.30;;;9.00;99.90;;;;;;5071386;28;20383;-51
2022/11/10 06:48:26;;;;;;;11.40;4.70;;;9.00;99.90;;;;;;5070539;28;20367;-51
2022/11/10 06:50:52;;;;;;;8.88;3.50;;;9.10;96.70;;;;;;5071217;28;20383;-51
2022/11/10 06:53:17;;;;;;;8.87;3.77;;;9.10;88.00;;;;;;5070523;28;20388;-51
2022/11/10 06:55:43;;;;;;;8.68;3.30;;;9.10;64.80;;;;;;5071310;28;20399;-51
2022/11/10 06:58:09;;;;;;;9.87;3.80;;;9.30;74.60;;;;;;5071002;28;20398;-51
2022/11/10 07:00:35;;;;;;;7.75;3.50;;;9.30;67.70;;;;;;5070810;28;20827;-51
2022/11/10 07:03:07;;;;;;;8.63;3.60;;;9.40;40.50;;;;;;5071400;28;20421;-54
2022/11/10 07:05:34;;;;;;;9.75;3.40;;;9.90;44.90;;;;;;5063922;28;20403;-51
2022/11/10 07:08:02;;;;;;;11.18;3.40;;;9.60;26.30;;;;;;5071465;28;20428;-51
2022/11/10 07:10:27;;;;;;;8.20;3.30;;;9.60;37.70;;;;;;5070255;28;20384;-51
2022/11/10 07:13:01;;;;;;;7.77;3.10;;;9.80;25.70;;;;;;5070934;28;20387;-51
2022/11/10 07:15:27;;;;;;;8.93;3.00;;;10.00;12.70;;;;;;5070047;28;21090;-51
2022/11/10 07:17:53;;;;;;;10.57;3.30;;;10.10;1.00;;;;;;5071404;28;20401;-51
2022/11/10 07:20:19;;;;;;;6.05;2.50;;;10.20;1.00;;;;;;5070279;28;20376;-51
2022/11/10 07:22:44;;;;;;;7.23;2.90;;;10.40;1.00;;;;;;5070679;28;20448;-51
2022/11/10 07:25:10;;;;;;;9.40;2.50;;;10.60;1.00;;;;;;5069973;28;20378;-51
2022/11/10 07:27:36;;;;;;;7.13;2.60;;;10.80;1.00;;;;;;5071147;28;20533;-51
2022/11/10 07:30:03;;;;;;;8.18;3.15;;;11.10;1.00;;;;;;5070660;28;20376;-49
2022/11/10 07:32:28;;;;;;;9.60;2.90;;;11.20;1.00;;;;;;5069923;28;20469;-49
2022/11/10 07:34:54;;;;;;;7.30;2.50;;;11.70;1.00;;;;;;5070540;28;20442;-51
2022/11/10 07:37:19;;;;;;;9.00;2.60;;;12.90;99.90;;;;;;5069697;28;20490;-50
2022/11/10 07:39:45;;;;;;;7.80;2.40;;;14.40;99.90;;;;;;5070452;28;20376;-50
2022/11/10 07:42:11;;;;;;;8.23;2.10;;;15.30;99.90;;;;;;5069805;28;20430;-56
2022/11/10 07:44:36;;;;;;;8.55;2.08;;;15.80;99.90;;;;;;5070531;28;20895;-50
2022/11/10 07:47:02;;;;;;;7.23;2.27;;;16.30;1.00;;;;;;5069988;28;20382;-50
2022/11/10 07:49:27;;;;;;;7.50;1.90;;;16.60;1.00;;;;;;5069560;28;20573;-51
2022/11/10 07:51:53;;;;;;;8.50;2.60;;;17.30;1.00;;;;;;5070001;28;20383;-50
2022/11/10 07:54:18;;;;;;;7.07;2.30;;;18.20;1.00;;;;;;5069673;28;20417;-50
2022/11/10 07:56:44;;;;;;;7.60;2.30;;;18.80;1.00;;;;;;5070412;28;20376;-51
2022/11/10 07:59:10;;;;;;;7.05;2.35;;;19.30;1.00;;;;;;5069733;28;20376;-57
2022/11/10 08:01:35;;;;;;;8.90;3.00;;;19.50;1.00;;;;;;5070065;28;20494;-51
2022/11/10 08:04:01;;;;;;;6.72;3.88;;;19.60;1.00;;;;;;5069832;28;20734;-51
2022/11/10 08:06:26;;;;;;;8.77;7.60;;;20.00;1.00;;;;;;5068829;28;20379;-51
2022/11/10 08:08:52;;;;;;;10.40;9.40;;;20.20;1.00;;;;;;5070124;28;20376;-52
2022/11/10 08:11:17;;;;;;;10.50;9.33;;;20.40;1.00;;;;;;5069299;28;20873;-52
2022/11/10 08:13:43;;;;;;;9.90;8.03;;;20.40;1.00;;;;;;5070401;28;20836;-51
2022/11/10 08:16:09;;;;;;;12.07;10.50;;;20.30;1.00;;;;;;5069717;28;20848;-57
2022/11/10 08:18:34;;;;;;;15.87;14.50;;;21.00;1.00;;;;;;5070111;28;20837;-51
2022/11/10 08:21:01;;;;;;;11.27;10.27;;;21.50;1.00;;;;;;5069421;28;20380;-51
2022/11/10 08:23:30;;;;;;;10.07;9.17;;;21.60;99.90;;;;;;5069335;28;20490;-51
2022/11/10 08:26:00;;;;;;;8.83;7.17;;;20.70;1.00;;;;;;5069548;28;20726;-51
2022/11/10 08:28:26;;;;;;;9.77;6.15;;;20.60;99.90;;;;;;5068946;28;20376;-50
2022/11/10 08:30:52;;;;;;;7.50;5.00;;;19.90;99.90;;;;;;5069609;28;20479;-51
2022/11/10 08:33:19;;;;;;;7.10;4.95;;;20.00;99.90;;;;;;5069075;28;20864;-53
2022/11/10 08:35:50;;;;;;;7.40;4.80;;;20.20;99.90;;;;;;5069403;28;20864;-52
2022/11/10 08:38:22;;;;;;;7.87;5.10;;;20.90;99.90;;;;;;5069486;28;20372;-51
2022/11/10 08:40:48;;;;;;;9.52;5.55;;;21.20;99.90;;;;;;5069984;28;20880;-51
2022/11/10 08:43:15;;;;;;;6.70;5.03;;;20.80;99.90;;;;;;5068944;28;20404;-51
2022/11/10 08:45:42;;;;;;;11.88;9.30;;;21.00;99.90;;;;;;5069955;28;20773;-51
2022/11/10 08:48:11;;;;;;;10.48;9.50;;;21.60;99.90;;;;;;5069099;28;20402;-56
2022/11/10 08:50:37;;;;;;;10.60;9.70;;;21.60;99.90;;;;;;5070009;28;20788;-51
2022/11/10 08:53:05;;;;;;;9.48;8.00;;;21.60;99.90;;;;;;5069581;28;20876;-50
2022/11/10 08:55:31;;;;;;;9.40;7.40;;;21.20;99.90;;;;;;5069047;28;20452;-51
2022/11/10 08:58:01;;;;;;;8.90;7.60;;;21.20;99.90;;;;;;5072337;28;20874;-51
2022/11/10 09:00:28;;;;;;;11.60;10.52;;;21.60;99.90;;;;;;5072916;28;20376;-51
2022/11/10 09:03:07;;;;;;;9.95;9.05;;;21.80;99.90;;;;;;5073283;28;20419;-52
2022/11/10 09:05:34;;;;;;;11.35;10.25;;;21.80;99.90;;;;;;5073349;28;20387;-54
2022/11/10 09:08:01;;;;;;;9.25;7.50;;;22.00;99.90;;;;;;5073565;28;20419;-51
2022/11/10 09:10:27;;;;;;;8.25;6.90;;;21.60;99.90;;;;;;5072681;28;20367;-52
2022/11/10 09:12:52;;;;;;;7.72;6.55;;;21.60;99.90;;;;;;5073026;28;20398;-52
2022/11/10 09:15:18;;;;;;;8.80;8.00;;;21.60;99.90;;;;;;5072436;28;20478;-51
2022/11/10 09:17:44;;;;;;;10.93;9.82;;;21.50;99.90;;;;;;5072826;28;20904;-51
2022/11/10 09:20:11;;;;;;;9.73;8.73;;;22.00;99.90;;;;;;5072664;28;20390;-57
2022/11/10 09:22:37;;;;;;;11.35;10.20;;;21.80;99.90;;;;;;5072727;28;20400;-51
2022/11/10 09:25:03;;;;;;;11.75;9.73;;;21.80;99.90;;;;;;5072581;28;20380;-52
2022/11/10 09:27:29;;;;;;;13.75;12.75;;;22.20;99.90;;;;;;5072816;28;20452;-52
2022/11/10 09:29:55;;;;;;;14.40;13.10;;;22.50;99.90;;;;;;5072987;28;20380;-52
2022/11/10 09:32:21;;;;;;;12.52;11.43;;;22.50;99.90;;;;;;5071803;28;20411;-51
2022/11/10 09:34:46;;;;;;;9.70;8.80;;;22.60;99.90;;;;;;5072941;28;20384;-52
2022/11/10 09:37:12;;;;;;;7.60;6.57;;;22.20;99.90;;;;;;5072192;28;20403;-51
2022/11/10 09:39:38;;;;;;;9.00;5.97;;;21.80;99.90;;;;;;5072621;28;20379;-51
2022/11/10 09:42:19;;;;;;;9.60;5.77;;;21.80;99.90;;;;;;5072881;28;20437;-51
2022/11/10 09:45:21;;;;;;;8.32;5.68;;;21.50;99.90;;;;;;5072865;28;20408;-51
2022/11/10 09:51:04;;;;;;;8.32;4.97;;;21.50;99.90;;;;;;5003021;28;20471;-51
2022/11/10 09:53:57;;;;;;;10.35;4.50;;;21.70;99.90;;;;;;5071684;28;20565;-52
2022/11/10 09:56:36;;;;;;;7.55;4.30;;;21.70;99.90;;;;;;5071451;28;20471;-52
2022/11/10 09:59:26;;;;;;;8.30;4.10;;;21.80;99.90;;;;;;5072363;28;20470;-52
2022/11/10 10:02:27;;;;;;;9.13;3.80;;;21.70;99.90;;;;;;5071768;28;20380;-53
2022/11/10 10:05:20;;;;;;;7.10;4.45;;;22.00;99.90;;;;;;5072354;28;20889;-54
2022/11/10 10:08:01;;;;;;;7.88;4.40;;;22.20;99.90;;;;;;5071677;28;20404;-51
2022/11/10 10:10:50;;;;;;;7.03;4.20;;;22.00;99.90;;;;;;5071064;28;20671;-52
2022/11/10 10:13:40;;;;;;;6.90;4.57;;;21.80;99.90;;;;;;5070605;28;20380;-52
2022/11/10 10:16:47;;;;;;;7.37;3.80;;;21.30;99.90;;;;;;5071673;28;20387;-52
2022/11/10 10:19:38;;;;;;;7.13;3.30;;;20.80;99.90;;;;;;5042989;28;20384;-57
2022/11/10 10:22:34;;;;;;;6.28;2.30;;;20.40;99.90;;;;;;5071638;28;20392;-52
2022/11/10 10:25:08;;;;;;;7.10;3.05;;;20.70;99.90;;;;;;5072022;28;20384;-52
2022/11/10 10:27:37;;;;;;;8.70;2.42;;;20.70;99.90;;;;;;5071692;28;20384;-52
2022/11/10 10:30:14;;;;;;;5.30;2.40;;;20.90;99.90;;;;;;5071650;28;20888;-52
2022/11/10 10:32:41;;;;;;;6.57;3.20;;;21.20;99.90;;;;;;5071327;28;20424;-52
2022/11/10 10:35:15;;;;;;;6.70;2.40;;;21.50;99.90;;;;;;5071526;28;20845;-52
2022/11/10 10:37:55;;;;;;;9.13;3.00;;;21.30;99.90;;;;;;5071315;28;20828;-51
2022/11/10 10:40:23;;;;;;;5.80;2.50;;;21.30;99.90;;;;;;5052859;28;20864;-52
2022/11/10 10:42:49;;;;;;;6.00;2.50;;;21.30;99.90;;;;;;5071559;28;20479;-51
2022/11/10 10:45:21;;;;;;;6.43;2.70;;;21.30;99.90;;;;;;5070752;28;20387;-51
2022/11/10 10:47:52;;;;;;;7.75;3.38;;;21.30;99.90;;;;;;5071833;28;20469;-51
2022/11/10 10:50:31;;;;;;;6.95;2.72;;;21.00;99.90;;;;;;5070888;28;20375;-51
2022/11/10 10:53:07;;;;;;;6.40;2.67;;;20.70;99.90;;;;;;5070882;28;20456;-51
2022/11/10 10:55:34;;;;;;;7.93;2.42;;;20.10;99.90;;;;;;5070494;28;20376;-51
2022/11/10 10:58:04;;;;;;;5.50;2.20;;;20.30;99.90;;;;;;5069919;28;20383;-52
2022/11/10 11:00:30;;;;;;;6.35;2.10;;;20.50;99.90;;;;;;5070529;28;20368;-51
2022/11/10 11:03:26;;;;;;;6.80;2.40;;;20.60;99.90;;;;;;5070669;28;20844;-52
2022/11/10 11:06:17;;;;;;;7.90;2.50;;;20.80;99.90;;;;;;5071116;28;20387;-51
2022/11/10 11:09:06;;;;;;;8.00;1.98;;;20.20;99.90;;;;;;5070779;28;20383;-51
2022/11/10 11:11:34;;;;;;;6.90;2.20;;;19.80;99.90;;;;;;5069711;28;20380;-51
2022/11/10 11:14:18;;;;;;;5.30;1.98;;;19.70;99.90;;;;;;5071023;28;20396;-51
2022/11/10 11:16:52;;;;;;;8.35;2.00;;;19.20;99.90;;;;;;5070787;28;20403;-50
2022/11/10 11:19:21;;;;;;;6.22;1.70;;;18.70;99.90;;;;;;5068955;28;20706;-50
2022/11/10 11:22:18;;;;;;;8.70;1.60;;;18.50;99.90;;;;;;5070930;28;20372;-52
2022/11/10 11:24:53;;;;;;;7.32;1.50;;;18.40;99.90;;;;;;5069565;28;20498;-50
2022/11/10 11:27:44;;;;;;;6.60;1.40;;;18.40;99.90;;;;;;5069964;28;20800;-50
2022/11/10 11:30:17;;;;;;;6.80;1.20;;;18.00;99.90;;;;;;5070293;28;20388;-50
2022/11/10 11:32:57;;;;;;;7.32;1.77;;;18.20;99.90;;;;;;5052338;28;20415;-50
2022/11/10 11:35:33;;;;;;;6.50;1.42;;;18.40;99.90;;;;;;5070336;28;20419;-50
2022/11/10 11:38:19;;;;;;;6.95;1.70;;;18.30;99.90;;;;;;5070552;28;20849;-50
2022/11/10 11:41:00;;;;;;;7.05;1.50;;;18.50;99.90;;;;;;5070431;28;20417;-50
2022/11/10 11:44:03;;;;;;;6.68;1.30;;;18.20;99.90;;;;;;5069869;28;20452;-50
2022/11/10 11:46:50;;;;;;;8.30;1.60;;;18.00;99.90;;;;;;5069722;28;20837;-52
2022/11/10 11:49:48;;;;;;;5.55;1.13;;;17.90;99.90;;;;;;5069441;28;20415;-50
2022/11/10 11:52:33;;;;;;;6.60;1.40;;;17.90;99.90;;;;;;5069988;28;20726;-50
2022/11/10 11:54:59;;;;;;;5.45;1.40;;;17.80;99.90;;;;;;5070012;28;20887;-50
2022/11/10 11:57:52;;;;;;;9.47;1.30;;;18.10;99.90;;;;;;5069498;28;20379;-50
2022/11/10 12:00:18;;;;;;;7.20;1.30;;;18.30;99.90;;;;;;5068875;28;20372;-50
2022/11/10 12:03:15;;;;;;;7.70;1.50;;;18.10;99.90;;;;;;5070119;28;20403;-50
2022/11/10 12:05:50;;;;;;;6.75;1.08;;;18.10;99.90;;;;;;5070377;28;20873;-50
2022/11/10 12:08:18;;;;;;;8.43;1.40;;;18.00;99.90;;;;;;5069595;28;20392;-50
2022/11/10 12:11:08;;;;;;;10.00;1.70;;;17.90;99.90;;;;;;5069729;28;20892;-50
2022/11/10 12:13:50;;;;;;;8.02;1.23;;;17.70;99.90;;;;;;5069080;28;20420;-50
2022/11/10 12:16:26;;;;;;;6.55;1.30;;;17.80;99.90;;;;;;5069764;28;20384;-50
2022/11/10 12:19:07;;;;;;;7.40;1.40;;;18.10;99.90;;;;;;5070093;28;20834;-49
2022/11/10 12:21:44;;;;;;;5.85;1.30;;;18.10;99.90;;;;;;5069233;28;20387;-50
2022/11/10 12:24:28;;;;;;;6.80;1.20;;;18.10;99.90;;;;;;5069993;28;21071;-50
2022/11/10 12:27:13;;;;;;;6.25;1.30;;;18.10;99.90;;;;;;5069416;28;20437;-50
2022/11/10 12:29:51;;;;;;;6.40;1.70;;;18.10;99.90;;;;;;5069578;28;20400;-50
2022/11/10 12:32:28;;;;;;;5.80;1.10;;;18.10;99.90;;;;;;5068243;28;20434;-50
2022/11/10 12:35:04;;;;;;;5.93;1.40;;;18.30;99.90;;;;;;5069637;28;20380;-50
2022/11/10 12:37:38;;;;;;;7.07;1.40;;;18.20;99.90;;;;;;5069300;28;20409;-50
2022/11/10 12:40:37;;;;;;;5.93;1.17;;;18.20;99.90;;;;;;5070138;28;20383;-50
2022/11/10 12:43:32;;;;;;;5.68;1.30;;;18.10;99.90;;;;;;5058489;28;20447;-52
2022/11/10 12:46:03;;;;;;;5.90;1.00;;;18.00;99.90;;;;;;5069713;28;20462;-50
2022/11/10 12:49:04;;;;;;;5.70;1.17;;;17.70;99.90;;;;;;5069229;28;20391;-50
2022/11/10 12:51:41;;;;;;;6.72;1.20;;;17.70;99.90;;;;;;5038742;28;20861;-51
2022/11/10 12:54:11;;;;;;;8.68;1.40;;;17.90;99.90;;;;;;5069762;28;20448;-50
2022/11/10 12:56:42;;;;;;;6.20;1.13;;;18.00;99.90;;;;;;5069835;28;20449;-50
2022/11/10 12:59:20;;;;;;;6.50;1.10;;;18.00;99.90;;;;;;5069837;28;20452;-50
2022/11/10 13:01:49;;;;;;;5.75;1.13;;;18.00;99.90;;;;;;5069829;28;20473;-50
2022/11/10 13:04:16;;;;;;;5.05;0.90;;;17.90;99.90;;;;;;5068831;28;20408;-50
2022/11/10 13:06:52;;;;;;;5.97;1.05;;;17.70;99.90;;;;;;5069915;28;20391;-50
2022/11/10 13:09:33;;;;;;;6.43;1.20;;;17.70;99.90;;;;;;5069397;28;20402;-50
2022/11/10 13:12:09;;;;;;;5.15;1.10;;;17.80;99.90;;;;;;5070215;28;20376;-50
2022/11/10 13:14:35;;;;;;;5.40;1.08;;;17.70;99.90;;;;;;5069251;28;20479;-50
2022/11/10 13:17:01;;;;;;;6.30;1.38;;;17.50;99.90;;;;;;5069657;28;20380;-52